createdAt,value
2022-09-14T00:01:28.622Z,94.02
2022-09-14T00:03:56.386Z,94.57
2022-09-14T00:06:22.947Z,95.06
2022-09-14T00:08:50.916Z,94.70
2022-09-14T00:11:17.378Z,94.56
2022-09-14T00:13:44.693Z,95.21
2022-09-14T00:16:17.577Z,94.04
2022-09-14T00:18:44.550Z,93.28
2022-09-14T00:21:12.189Z,93.45
2022-09-14T00:23:39.773Z,93.19
2022-09-14T00:26:08.579Z,93.69
2022-09-14T00:28:42.027Z,93.73
2022-09-14T00:31:08.905Z,93.61
2022-09-14T00:33:35.795Z,93.75
2022-09-14T00:36:09.453Z,93.69
2022-09-14T00:38:36.341Z,94.02
2022-09-14T00:41:03.320Z,93.94
2022-09-14T00:43:52.456Z,93.78
2022-09-14T00:46:18.939Z,93.23
2022-09-14T00:48:45.425Z,92.67
2022-09-14T00:51:11.967Z,92.13
2022-09-14T00:53:38.853Z,91.43
2022-09-14T00:56:05.996Z,90.72
2022-09-14T00:58:32.498Z,90.52
2022-09-14T01:00:59.020Z,90.07
2022-09-14T01:03:25.561Z,90.32
2022-09-14T01:06:04.643Z,89.97
2022-09-14T01:08:46.417Z,90.21
2022-09-14T01:11:26.776Z,90.33
2022-09-14T01:14:02.149Z,91.11
2022-09-14T01:16:40.653Z,90.46
2022-09-14T01:19:33.687Z,91.53
2022-09-14T01:22:09.264Z,91.53
2022-09-14T01:24:44.791Z,91.23
2022-09-14T01:27:20.008Z,91.03
2022-09-14T01:29:50.238Z,90.95
2022-09-14T01:32:16.771Z,91.78
2022-09-14T01:34:46.056Z,91.70
2022-09-14T01:37:32.745Z,91.61
2022-09-14T01:40:09.437Z,92.04
2022-09-14T01:42:38.196Z,91.88
2022-09-14T01:45:08.908Z,92.00
2022-09-14T01:47:46.987Z,91.95
2022-09-14T01:50:20.624Z,92.70
2022-09-14T01:52:49.466Z,92.90
2022-09-14T01:55:18.373Z,92.79
2022-09-14T01:57:50.566Z,91.86
2022-09-14T02:00:18.132Z,92.18
2022-09-14T02:02:47.509Z,92.68
2022-09-14T02:05:24.494Z,92.79
2022-09-14T02:07:51.048Z,93.27
2022-09-14T02:10:18.152Z,93.48
2022-09-14T02:12:44.815Z,94.21
2022-09-14T02:15:12.769Z,94.10
2022-09-14T02:17:39.500Z,94.74
2022-09-14T02:20:08.307Z,94.44
2022-09-14T02:22:35.245Z,94.58
2022-09-14T02:25:02.077Z,95.20
2022-09-14T02:27:28.537Z,94.94
2022-09-14T02:29:55.270Z,95.38
2022-09-14T02:32:35.425Z,95.62
2022-09-14T02:35:04.615Z,96.11
2022-09-14T02:37:31.258Z,96.15
2022-09-14T02:40:03.558Z,96.04
2022-09-14T02:42:29.989Z,97.13
2022-09-14T02:45:14.962Z,97.06
2022-09-14T02:48:02.527Z,96.63
2022-09-14T02:50:29.387Z,96.68
2022-09-14T02:53:01.875Z,97.30
2022-09-14T02:55:31.614Z,96.79
2022-09-14T02:58:04.380Z,96.85
2022-09-14T03:00:31.545Z,96.51
2022-09-14T03:02:58.757Z,96.70
2022-09-14T03:05:25.732Z,96.28
2022-09-14T03:07:52.210Z,95.48
2022-09-14T03:10:18.695Z,96.17
2022-09-14T03:12:45.217Z,95.74
2022-09-14T03:15:11.754Z,96.02
2022-09-14T03:17:38.293Z,95.24
2022-09-14T03:20:04.937Z,95.68
2022-09-14T03:22:32.377Z,95.29
2022-09-14T03:24:58.833Z,95.76
2022-09-14T03:27:25.274Z,95.65
2022-09-14T03:29:51.716Z,96.91
2022-09-14T03:32:18.181Z,96.89
2022-09-14T03:34:44.620Z,96.70
2022-09-14T03:37:11.159Z,96.22
2022-09-14T03:39:37.830Z,95.27
2022-09-14T03:42:04.323Z,95.68
2022-09-14T03:44:30.763Z,95.61
2022-09-14T03:46:57.242Z,95.82
2022-09-14T03:49:23.664Z,94.95
2022-09-14T03:51:50.103Z,95.16
2022-09-14T03:54:16.542Z,94.49
2022-09-14T03:56:42.966Z,94.27
2022-09-14T03:59:10.189Z,94.17
2022-09-14T04:01:38.402Z,93.92
2022-09-14T04:04:04.942Z,93.62
2022-09-14T04:06:32.804Z,93.62
2022-09-14T04:09:00.092Z,93.23
2022-09-14T04:11:26.662Z,93.45
2022-09-14T04:13:53.443Z,93.97
2022-09-14T04:16:21.108Z,94.37
2022-09-14T04:18:48.009Z,95.39
2022-09-14T04:21:15.766Z,95.89
2022-09-14T04:24:12.749Z,96.74
2022-09-14T04:26:29.976Z,96.69
2022-09-14T04:28:56.943Z,95.48
2022-09-14T04:31:24.250Z,95.49
2022-09-14T04:33:51.361Z,94.92
2022-09-14T04:36:19.392Z,96.02
2022-09-14T04:38:46.079Z,95.25
2022-09-14T04:41:13.975Z,95.63
2022-09-14T04:43:40.715Z,95.14
2022-09-14T04:46:08.800Z,95.12
2022-09-14T04:48:35.387Z,95.92
2022-09-14T04:51:03.164Z,95.06
2022-09-14T04:53:29.875Z,93.69
2022-09-14T04:56:06.341Z,93.74
2022-09-14T04:58:33.313Z,93.90
2022-09-14T05:01:08.313Z,94.07
2022-09-14T05:03:35.163Z,93.11
2022-09-14T05:06:02.411Z,92.45
2022-09-14T05:08:30.218Z,93.41
2022-09-14T05:10:57.462Z,93.85
2022-09-14T05:13:24.213Z,93.93
2022-09-14T05:15:51.143Z,92.44
2022-09-14T05:18:18.150Z,91.89
2022-09-14T05:20:44.779Z,91.25
2022-09-14T05:23:11.379Z,90.65
2022-09-14T05:25:37.900Z,89.76
2022-09-14T05:28:04.343Z,89.16
2022-09-14T05:30:30.984Z,88.54
2022-09-14T05:32:58.176Z,87.90
2022-09-14T05:35:24.730Z,86.86
2022-09-14T05:37:51.163Z,86.20
2022-09-14T05:40:17.766Z,85.23
2022-09-14T05:42:44.341Z,84.87
2022-09-14T05:45:10.922Z,84.15
2022-09-14T05:47:39.278Z,83.62
2022-09-14T05:50:08.446Z,82.99
2022-09-14T05:52:34.898Z,82.09
2022-09-14T05:55:01.674Z,81.32
2022-09-14T05:57:28.113Z,81.26
2022-09-14T05:59:54.539Z,80.54
2022-09-14T06:02:21.091Z,79.78
2022-09-14T06:04:47.567Z,79.61
2022-09-14T06:07:18.763Z,77.55
2022-09-14T06:09:45.902Z,78.00
2022-09-14T06:12:14.574Z,77.43
2022-09-14T06:14:40.999Z,76.61
2022-09-14T06:17:07.485Z,76.26
2022-09-14T06:19:34.031Z,75.58
2022-09-14T06:22:00.727Z,75.04
2022-09-14T06:24:27.319Z,74.39
2022-09-14T06:26:53.746Z,73.51
2022-09-14T06:29:20.179Z,72.55
2022-09-14T06:31:46.763Z,72.47
2022-09-14T06:34:13.254Z,73.04
2022-09-14T06:36:39.713Z,71.14
2022-09-14T06:39:06.168Z,70.57
2022-09-14T06:41:34.347Z,69.27
2022-09-14T06:44:01.880Z,69.34
2022-09-14T06:46:32.306Z,68.18
2022-09-14T06:49:00.817Z,68.29
2022-09-14T06:51:37.248Z,67.94
2022-09-14T06:54:04.114Z,67.70
2022-09-14T06:56:37.899Z,66.80
2022-09-14T06:59:05.400Z,66.42
2022-09-14T07:01:31.984Z,65.81
2022-09-14T07:04:00.300Z,65.46
2022-09-14T07:06:28.366Z,65.29
2022-09-14T07:08:55.743Z,65.28
2022-09-14T07:11:23.654Z,64.84
2022-09-14T07:13:51.741Z,64.08
2022-09-14T07:16:18.292Z,63.09
2022-09-14T07:18:44.774Z,62.25
2022-09-14T07:21:12.521Z,62.30
2022-09-14T07:23:40.122Z,60.50
2022-09-14T07:26:08.825Z,60.13
2022-09-14T07:28:35.839Z,60.22
2022-09-14T07:31:03.174Z,59.47
2022-09-14T07:33:29.774Z,59.08
2022-09-14T07:36:05.120Z,59.11
2022-09-14T07:38:51.153Z,57.89
2022-09-14T07:41:18.246Z,57.26
2022-09-14T07:43:48.055Z,56.26
2022-09-14T07:46:14.546Z,56.17
2022-09-14T07:48:41.114Z,55.88
2022-09-14T07:51:08.702Z,55.42
2022-09-14T07:53:35.912Z,55.18
2022-09-14T07:56:03.604Z,54.46
2022-09-14T07:58:30.127Z,53.50
2022-09-14T08:01:00.425Z,52.16
2022-09-14T08:03:28.846Z,52.54
2022-09-14T08:06:01.861Z,51.99
2022-09-14T08:08:29.413Z,50.69
2022-09-14T08:10:58.902Z,50.10
2022-09-14T08:13:25.383Z,48.11
2022-09-14T08:15:51.987Z,49.23
2022-09-14T08:18:18.826Z,48.58
2022-09-14T08:20:45.277Z,48.61
2022-09-14T08:23:11.974Z,47.27
2022-09-14T08:25:38.389Z,47.37
2022-09-14T08:28:05.698Z,47.03
2022-09-14T08:30:32.937Z,46.68
2022-09-14T08:33:01.841Z,46.24
2022-09-14T08:35:53.981Z,45.23
2022-09-14T08:38:14.992Z,44.31
2022-09-14T08:40:45.302Z,43.65
2022-09-14T08:43:13.266Z,42.67
2022-09-14T08:45:42.095Z,43.70
2022-09-14T08:48:18.832Z,44.46
2022-09-14T08:50:45.350Z,42.91
2022-09-14T08:53:11.866Z,42.72
2022-09-14T08:55:44.663Z,43.31
2022-09-14T08:58:14.220Z,42.43
2022-09-14T09:00:46.986Z,40.94
2022-09-14T09:03:13.462Z,40.77
2022-09-14T09:05:48.923Z,39.21
2022-09-14T09:08:28.921Z,38.02
2022-09-14T09:10:58.806Z,37.49
2022-09-14T09:13:29.124Z,37.07
2022-09-14T09:15:58.989Z,36.56
2022-09-14T09:18:44.013Z,34.75
2022-09-14T09:21:10.428Z,35.81
2022-09-14T09:23:37.281Z,36.07
2022-09-14T09:26:05.905Z,35.17
2022-09-14T09:28:33.697Z,34.67
2022-09-14T09:31:05.554Z,35.02
2022-09-14T09:33:32.385Z,33.94
2022-09-14T09:35:59.531Z,33.94
2022-09-14T09:38:27.280Z,33.78
2022-09-14T09:41:11.927Z,33.73
2022-09-14T09:43:57.214Z,33.46
2022-09-14T09:46:24.511Z,33.47
2022-09-14T09:48:51.480Z,34.82
2022-09-14T09:51:24.326Z,34.69
2022-09-14T09:53:52.572Z,34.96
2022-09-14T09:56:37.589Z,34.82
2022-09-14T09:59:20.902Z,34.51
2022-09-14T10:01:47.543Z,34.85
2022-09-14T10:04:18.331Z,33.05
2022-09-14T10:06:47.496Z,33.62
2022-09-14T10:09:18.591Z,33.52
2022-09-14T10:11:45.730Z,33.85
2022-09-14T10:14:21.485Z,33.95
2022-09-14T10:16:47.945Z,33.61
2022-09-14T10:19:15.746Z,32.44
2022-09-14T10:22:01.621Z,32.95
2022-09-14T10:24:28.133Z,34.31
2022-09-14T10:26:54.542Z,35.11
2022-09-14T10:29:30.622Z,32.90
2022-09-14T10:31:59.988Z,33.74
2022-09-14T10:34:26.578Z,32.87
2022-09-14T10:36:59.866Z,33.65
2022-09-14T10:39:31.264Z,32.54
2022-09-14T10:42:06.997Z,31.44
2022-09-14T10:44:39.224Z,29.69
2022-09-14T10:47:24.363Z,30.15
2022-09-14T10:49:56.785Z,28.24
2022-09-14T10:52:36.927Z,28.72
2022-09-14T10:55:19.865Z,28.75
2022-09-14T10:57:58.263Z,27.79
2022-09-14T11:00:25.296Z,28.65
2022-09-14T11:02:58.070Z,27.46
2022-09-14T11:05:30.496Z,26.53
2022-09-14T11:08:24.520Z,29.08
2022-09-14T11:10:50.954Z,27.43
2022-09-14T11:13:17.468Z,27.71
2022-09-14T11:16:00.079Z,27.63
2022-09-14T11:18:45.128Z,28.56
2022-09-14T11:21:17.679Z,29.02
2022-09-14T11:23:48.002Z,29.25
2022-09-14T11:26:16.888Z,28.25
2022-09-14T11:28:46.490Z,29.76
2022-09-14T11:31:22.438Z,30.78
2022-09-14T11:33:53.640Z,29.29
2022-09-14T11:36:23.301Z,28.91
2022-09-14T11:39:07.036Z,29.57
2022-09-14T11:41:41.584Z,29.59
2022-09-14T11:44:20.929Z,30.38
2022-09-14T11:47:00.598Z,29.49
2022-09-14T11:49:30.335Z,29.43
2022-09-14T11:52:07.226Z,30.35
2022-09-14T11:54:34.466Z,28.33
2022-09-14T11:57:02.332Z,28.68
2022-09-14T11:59:34.610Z,28.41
2022-09-14T12:02:19.704Z,27.37
2022-09-14T12:05:04.594Z,28.54
2022-09-14T12:07:39.963Z,29.42
2022-09-14T12:10:18.215Z,31.17
2022-09-14T12:12:44.685Z,30.52
2022-09-14T12:15:13.888Z,30.69
2022-09-14T12:17:41.735Z,29.99
2022-09-14T12:20:26.974Z,29.10
2022-09-14T12:23:03.904Z,28.28
2022-09-14T12:25:31.397Z,28.60
2022-09-14T12:27:57.931Z,28.93
2022-09-14T12:30:40.498Z,29.24
2022-09-14T12:33:25.660Z,29.24
2022-09-14T12:35:52.147Z,29.27
2022-09-14T12:38:30.565Z,29.56
2022-09-14T12:41:01.299Z,29.42
2022-09-14T12:43:33.672Z,29.42
2022-09-14T12:46:03.309Z,30.36
2022-09-14T12:48:44.782Z,29.92
2022-09-14T12:51:14.241Z,29.69
2022-09-14T12:53:43.729Z,29.53
2022-09-14T12:56:20.655Z,30.29
2022-09-14T12:58:53.609Z,29.01
2022-09-14T13:01:20.035Z,28.74
2022-09-14T13:03:48.673Z,29.20
2022-09-14T13:06:15.166Z,28.97
2022-09-14T13:08:46.302Z,28.95
2022-09-14T13:11:19.927Z,28.75
2022-09-14T13:13:48.032Z,29.24
2022-09-14T13:16:17.668Z,28.63
2022-09-14T13:18:44.260Z,28.68
2022-09-14T13:21:18.566Z,28.78
2022-09-14T13:23:45.444Z,28.47
2022-09-14T13:26:13.250Z,29.07
2022-09-14T13:28:42.408Z,28.32
2022-09-14T13:31:12.189Z,28.19
2022-09-14T13:33:38.753Z,28.35
2022-09-14T13:36:05.495Z,27.13
2022-09-14T13:38:33.629Z,27.07
2022-09-14T13:41:05.575Z,27.15
2022-09-14T13:43:32.848Z,27.84
2022-09-14T13:45:59.304Z,27.28
2022-09-14T13:48:25.902Z,28.19
2022-09-14T13:50:52.581Z,29.56
2022-09-14T13:53:37.689Z,30.34
2022-09-14T13:56:22.916Z,31.10
2022-09-14T13:58:50.919Z,31.97
2022-09-14T14:01:24.638Z,33.16
2022-09-14T14:03:51.404Z,33.51
2022-09-14T14:06:25.941Z,33.27
2022-09-14T14:09:02.862Z,34.18
2022-09-14T14:11:35.220Z,34.77
2022-09-14T14:14:10.912Z,34.61
2022-09-14T14:16:37.590Z,35.27
2022-09-14T14:19:04.130Z,35.17
2022-09-14T14:21:31.910Z,34.87
2022-09-14T14:24:25.177Z,35.14
2022-09-14T14:26:53.383Z,35.48
2022-09-14T14:29:19.913Z,37.01
2022-09-14T14:31:46.475Z,36.85
2022-09-14T14:34:19.084Z,37.23
2022-09-14T14:36:47.243Z,37.71
2022-09-14T14:39:13.982Z,38.26
2022-09-14T14:41:40.960Z,38.19
2022-09-14T14:44:12.759Z,37.96
2022-09-14T14:46:40.956Z,38.72
2022-09-14T14:49:08.750Z,39.12
2022-09-14T14:51:35.172Z,39.61
2022-09-14T14:54:01.594Z,39.61
2022-09-14T14:56:28.752Z,39.87
2022-09-14T14:58:57.820Z,39.91
2022-09-14T15:01:28.236Z,40.45
2022-09-14T15:03:54.801Z,41.17
2022-09-14T15:06:24.470Z,41.86
2022-09-14T15:08:54.900Z,41.63
2022-09-14T15:11:21.716Z,42.06
2022-09-14T15:13:48.241Z,42.38
2022-09-14T15:16:14.898Z,42.94
2022-09-14T15:18:41.494Z,43.12
2022-09-14T15:21:08.332Z,43.21
2022-09-14T15:23:35.188Z,43.36
2022-09-14T15:26:01.823Z,43.60
2022-09-14T15:28:28.322Z,43.85
2022-09-14T15:30:56.369Z,44.00
2022-09-14T15:33:22.781Z,44.60
2022-09-14T15:35:54.715Z,44.74
2022-09-14T15:38:21.182Z,45.22
2022-09-14T15:40:47.674Z,45.40
2022-09-14T15:43:14.143Z,46.27
2022-09-14T15:45:40.655Z,46.33
2022-09-14T15:48:07.190Z,46.65
2022-09-14T15:50:33.660Z,46.96
2022-09-14T15:53:02.688Z,46.79
2022-09-14T15:55:29.782Z,47.26
2022-09-14T15:57:56.204Z,47.31
2022-09-14T16:00:22.695Z,46.96
2022-09-14T16:02:50.202Z,45.77
2022-09-14T16:05:18.938Z,43.25
2022-09-14T16:07:45.384Z,42.38
2022-09-14T16:10:11.804Z,43.80
2022-09-14T16:12:38.245Z,43.63
2022-09-14T16:15:04.900Z,43.17
2022-09-14T16:17:31.394Z,42.69
2022-09-14T16:19:57.860Z,42.83
2022-09-14T16:22:25.305Z,42.31
2022-09-14T16:24:51.719Z,41.04
2022-09-14T16:27:18.488Z,41.31
2022-09-14T16:29:45.024Z,41.91
2022-09-14T16:32:11.546Z,42.73
2022-09-14T16:34:38.081Z,44.25
2022-09-14T16:37:04.651Z,45.32
2022-09-14T16:39:31.727Z,46.72
2022-09-14T16:41:59.954Z,48.91
2022-09-14T16:44:27.814Z,49.64
2022-09-14T16:46:55.484Z,52.23
2022-09-14T16:49:26.491Z,53.40
2022-09-14T16:51:54.304Z,54.66
2022-09-14T16:54:21.805Z,55.93
2022-09-14T16:56:49.226Z,58.13
2022-09-14T16:59:17.564Z,59.03
2022-09-14T17:01:47.092Z,59.74
2022-09-14T17:04:16.601Z,60.49
2022-09-14T17:06:44.389Z,60.94
2022-09-14T17:09:12.715Z,62.33
2022-09-14T17:11:40.056Z,63.69
2022-09-14T17:14:06.745Z,63.08
2022-09-14T17:16:33.666Z,63.99
2022-09-14T17:19:01.661Z,66.12
2022-09-14T17:21:30.414Z,65.58
2022-09-14T17:23:57.387Z,65.39
2022-09-14T17:26:24.235Z,66.10
2022-09-14T17:28:51.531Z,65.00
2022-09-14T17:31:21.427Z,66.39
2022-09-14T17:33:48.093Z,67.24
2022-09-14T17:36:15.336Z,68.55
2022-09-14T17:38:42.603Z,68.97
2022-09-14T17:41:14.224Z,70.78
2022-09-14T17:43:40.753Z,71.39
2022-09-14T17:46:08.282Z,71.98
2022-09-14T17:48:35.761Z,72.04
2022-09-14T17:51:08.427Z,73.21
2022-09-14T17:53:38.674Z,74.17
2022-09-14T17:56:06.606Z,74.19
2022-09-14T17:58:33.593Z,72.37
2022-09-14T18:01:13.912Z,73.37
2022-09-14T18:03:41.549Z,75.43
2022-09-14T18:06:10.152Z,75.29
2022-09-14T18:08:36.932Z,76.78
2022-09-14T18:11:07.756Z,77.44
2022-09-14T18:13:34.560Z,78.00
2022-09-14T18:16:01.542Z,76.62
2022-09-14T18:18:28.358Z,76.79
2022-09-14T18:20:54.918Z,77.87
2022-09-14T18:23:21.532Z,77.59
2022-09-14T18:25:47.981Z,78.64
2022-09-14T18:28:14.506Z,77.84
2022-09-14T18:30:43.673Z,78.05
2022-09-14T18:33:10.598Z,77.22
2022-09-14T18:35:37.977Z,77.01
2022-09-14T18:38:05.662Z,77.40
2022-09-14T18:40:36.174Z,76.92
2022-09-14T18:43:02.896Z,77.34
2022-09-14T18:45:30.620Z,76.79
2022-09-14T18:47:57.471Z,76.50
2022-09-14T18:50:23.977Z,76.53
2022-09-14T18:52:52.253Z,77.51
2022-09-14T18:55:19.314Z,78.04
2022-09-14T18:57:48.840Z,78.59
2022-09-14T19:00:18.584Z,79.02
2022-09-14T19:02:50.618Z,78.14
2022-09-14T19:05:17.186Z,79.29
2022-09-14T19:07:43.624Z,79.06
2022-09-14T19:10:11.781Z,77.49
2022-09-14T19:12:38.494Z,76.91
2022-09-14T19:15:05.257Z,78.46
2022-09-14T19:17:31.700Z,79.75
2022-09-14T19:19:58.394Z,80.48
2022-09-14T19:22:24.889Z,80.65
2022-09-14T19:24:51.590Z,79.56
2022-09-14T19:27:18.111Z,79.88
2022-09-14T19:29:44.648Z,80.61
2022-09-14T19:32:11.079Z,80.10
2022-09-14T19:34:38.580Z,80.83
2022-09-14T19:37:05.685Z,81.67
2022-09-14T19:39:32.170Z,79.85
2022-09-14T19:41:58.707Z,79.19
2022-09-14T19:44:25.162Z,80.16
2022-09-14T19:46:51.872Z,79.92
2022-09-14T19:49:20.705Z,79.26
2022-09-14T19:51:47.528Z,78.80
2022-09-14T19:54:14.543Z,79.42
2022-09-14T19:56:41.448Z,79.03
2022-09-14T19:59:08.600Z,80.04
2022-09-14T20:01:37.184Z,80.64
2022-09-14T20:04:05.000Z,80.87
2022-09-14T20:06:32.577Z,81.44
2022-09-14T20:08:59.295Z,83.03
2022-09-14T20:11:26.745Z,83.63
2022-09-14T20:13:54.265Z,85.49
2022-09-14T20:16:34.424Z,84.44
2022-09-14T20:19:03.518Z,83.90
2022-09-14T20:21:30.073Z,83.89
2022-09-14T20:24:15.141Z,83.02
2022-09-14T20:26:42.758Z,83.17
2022-09-14T20:29:09.303Z,83.54
2022-09-14T20:31:36.130Z,82.89
2022-09-14T20:34:02.666Z,81.75
2022-09-14T20:36:29.803Z,81.35
2022-09-14T20:38:57.338Z,81.20
2022-09-14T20:41:24.837Z,82.19
2022-09-14T20:43:51.929Z,81.60
2022-09-14T20:46:19.962Z,82.04
2022-09-14T20:48:59.102Z,81.07
2022-09-14T20:51:25.784Z,80.55
2022-09-14T20:53:52.348Z,80.13
2022-09-14T20:56:20.396Z,80.17
2022-09-14T20:58:47.130Z,79.58
2022-09-14T21:01:15.099Z,79.55
2022-09-14T21:03:42.350Z,79.23
2022-09-14T21:06:13.791Z,79.25
2022-09-14T21:08:40.932Z,79.09
2022-09-14T21:11:11.860Z,79.37
2022-09-14T21:13:38.756Z,79.36
2022-09-14T21:16:09.914Z,79.14
2022-09-14T21:18:36.505Z,79.63
2022-09-14T21:21:07.602Z,79.41
2022-09-14T21:23:34.382Z,80.45
2022-09-14T21:26:01.221Z,80.76
2022-09-14T21:28:27.758Z,80.31
2022-09-14T21:31:03.579Z,80.30
2022-09-14T21:33:31.416Z,80.54
2022-09-14T21:36:02.072Z,81.47
2022-09-14T21:38:28.500Z,81.13
2022-09-14T21:40:54.990Z,81.38
2022-09-14T21:43:21.459Z,81.29
2022-09-14T21:45:47.953Z,81.93
2022-09-14T21:48:14.568Z,82.28
2022-09-14T21:50:45.282Z,82.02
2022-09-14T21:53:13.972Z,82.63
2022-09-14T21:55:41.080Z,83.54
2022-09-14T21:58:07.820Z,83.13
2022-09-14T22:00:34.304Z,83.86
2022-09-14T22:03:00.964Z,84.17
2022-09-14T22:05:27.508Z,84.55
2022-09-14T22:07:53.976Z,83.97
2022-09-14T22:10:20.481Z,84.68
2022-09-14T22:12:48.260Z,84.91
2022-09-14T22:15:16.172Z,84.98
2022-09-14T22:17:42.986Z,85.07
2022-09-14T22:20:09.621Z,84.73
2022-09-14T22:22:36.082Z,84.67
2022-09-14T22:25:02.636Z,84.79
2022-09-14T22:27:29.107Z,84.54
2022-09-14T22:29:55.586Z,84.89
2022-09-14T22:32:22.831Z,84.58
2022-09-14T22:34:50.699Z,84.91
2022-09-14T22:37:17.305Z,84.03
2022-09-14T22:39:43.945Z,84.66
2022-09-14T22:42:10.670Z,83.92
2022-09-14T22:44:55.547Z,84.23
2022-09-14T22:47:22.029Z,84.49
2022-09-14T22:49:48.637Z,83.98
2022-09-14T22:52:15.175Z,84.44
2022-09-14T22:54:41.644Z,84.59
2022-09-14T22:57:08.731Z,84.84
2022-09-14T22:59:35.183Z,84.25
2022-09-14T23:02:01.677Z,84.38
2022-09-14T23:04:28.133Z,83.88
2022-09-14T23:06:54.751Z,84.06
2022-09-14T23:09:22.218Z,84.38
2022-09-14T23:11:49.074Z,84.21
2022-09-14T23:14:18.883Z,84.09
2022-09-14T23:16:45.842Z,84.03
2022-09-14T23:19:14.573Z,84.33
2022-09-14T23:21:41.047Z,84.29
2022-09-14T23:24:07.666Z,84.99
2022-09-14T23:26:34.305Z,83.95
2022-09-14T23:29:02.151Z,83.53
2022-09-14T23:31:29.402Z,83.44
2022-09-14T23:33:57.527Z,83.15
2022-09-14T23:36:24.187Z,82.55
2022-09-14T23:38:51.051Z,82.28
2022-09-14T23:41:18.313Z,82.34
2022-09-14T23:43:45.026Z,81.64
2022-09-14T23:46:12.700Z,81.33
2022-09-14T23:48:39.225Z,81.41
2022-09-14T23:51:06.923Z,81.38
2022-09-14T23:53:33.955Z,81.49
2022-09-14T23:56:00.691Z,81.70
2022-09-14T23:58:27.199Z,81.58
